White River @ West Hartford, Vt

White River at West Hartford
 Total Drainage Area: 690 sq. miles 
 Drainage Area Controlled by Corps Dams: 0 sq. miles (0%) 
 Warning Flow/Stage: 9,910 cfs / 10.0 feet 
 Flood Flow/Stage: 36,100 cfs / 18.0 feet 
Date Time
(Eastern)
Stage
(ft)
Flow
(cfs)
CSM
(cfs / sq. mi.)
Jun-25 12:30 am 4.78 1,202 1.7
Jun-24 11:30 pm 4.82 1,237 1.8
Jun-24 10:30 pm 4.85 1,263 1.8
Jun-24 09:30 pm 4.89 1,298 1.9
Jun-24 08:30 pm 4.92 1,325 1.9
Jun-24 07:30 pm 4.98 1,380 2.0
Jun-24 06:30 pm 5.01 1,408 2.0
Jun-24 05:30 pm 5.06 1,455 2.1
Jun-24 04:30 pm 5.10 1,493 2.2
Jun-24 03:30 pm 5.15 1,542 2.2
Jun-24 02:30 pm 5.21 1,602 2.3
Jun-24 01:30 pm 5.28 1,673 2.4
Jun-24 12:30 pm 5.34 1,735 2.5
Jun-24 11:30 am 5.42 1,820 2.6
Jun-24 10:30 am 5.48 1,886 2.7
Jun-24 09:30 am 5.59 2,009 2.9
Jun-24 08:30 am 5.68 2,113 3.1
Jun-24 07:30 am 5.77 2,220 3.2
Jun-24 06:30 am 5.84 2,305 3.3
Jun-24 05:30 am 5.84 2,305 3.3
Jun-24 04:30 am 5.75 2,196 3.2
Jun-24 03:30 am 5.61 2,032 2.9
Jun-24 02:30 am 5.63 2,055 3.0
Jun-24 01:30 am 5.68 2,113 3.1
Jun-24 12:30 am 5.71 2,148 3.1
Report Generated June 25, 2024 01:12 am